Time,TemperatureF,DewpointF,PressureIn,WindDirection,WindDirectionDegrees,WindSpeedMPH,WindSpeedGustMPH,Humidity,HourlyPrecipIn,Conditions,Clouds,dailyrainin,SoftwareType,DateUTC
2013-03-05 00:02:00,59.0,-99.9,29.98,South,171,12.0,14.0,-999,-99.99,,,-99.99,,2013-03-05 06:02:00,
2013-03-05 00:11:00,59.0,-99.9,29.98,SSE,168,12.0,14.0,-999,-99.99,,,-99.99,,2013-03-05 06:11:00,
2013-03-05 00:22:00,59.0,-99.9,29.98,North,-999,-999.0,-999.0,-999,-99.99,,,-99.99,,2013-03-05 06:22:00,
2013-03-05 00:32:00,59.0,-99.9,29.98,South,174,11.0,13.0,-999,-99.99,,,-99.99,,2013-03-05 06:32:00,
2013-03-05 00:42:00,59.0,-99.9,29.98,North,-999,-999.0,-999.0,-999,-99.99,,,-99.99,,2013-03-05 06:42:00,
2013-03-05 00:52:00,61.0,-99.9,29.98,South,179,12.0,16.0,-999,-99.99,,,-99.99,,2013-03-05 06:52:00,
2013-03-05 01:01:00,61.0,-99.9,29.98,South,180,11.0,16.0,-999,-99.99,,,-99.99,,2013-03-05 07:01:00,
2013-03-05 01:11:00,61.0,-99.9,29.98,South,180,11.0,15.0,-999,-99.99,,,-99.99,,2013-03-05 07:11:00,
2013-03-05 01:22:00,61.0,-99.9,29.98,South,179,11.0,14.0,-999,-99.99,,,-99.99,,2013-03-05 07:22:00,
2013-03-05 01:32:00,61.0,-99.9,29.98,South,184,9.0,13.0,-999,-99.99,,,-99.99,,2013-03-05 07:32:00,
2013-03-05 01:42:00,62.0,-99.9,29.98,South,183,8.0,12.0,-999,-99.99,,,-99.99,,2013-03-05 07:42:00,
2013-03-05 01:52:00,61.0,-99.9,29.98,South,182,7.0,10.0,-999,-99.99,,,-99.99,,2013-03-05 07:52:00,
2013-03-05 02:02:00,61.0,-99.9,29.98,South,188,6.0,10.0,-999,-99.99,,,-99.99,,2013-03-05 08:02:00,
2013-03-05 02:11:00,61.0,-99.9,29.98,SSW,199,6.0,10.0,-999,-99.99,,,-99.99,,2013-03-05 08:11:00,
2013-03-05 02:21:00,60.0,-99.9,29.98,SSW,205,7.0,9.0,-999,-99.99,,,-99.99,,2013-03-05 08:21:00,
2013-03-05 02:32:00,60.0,-99.9,29.98,SW,215,7.0,12.0,-999,-99.99,,,-99.99,,2013-03-05 08:32:00,
2013-03-05 02:42:00,60.0,-99.9,29.98,SSW,212,5.0,8.0,-999,-99.99,,,-99.99,,2013-03-05 08:42:00,
2013-03-05 02:52:00,60.0,-99.9,29.98,North,-999,-999.0,-999.0,-999,-99.99,,,-99.99,,2013-03-05 08:52:00,
2013-03-05 03:02:00,60.0,-99.9,29.98,WSW,246,5.0,9.0,-999,-99.99,,,-99.99,,2013-03-05 09:02:00,
2013-03-05 03:11:00,60.0,-99.9,29.98,SSW,213,8.0,13.0,-999,-99.99,,,-99.99,,2013-03-05 09:11:00,
2013-03-05 03:22:00,60.0,-99.9,29.98,SSW,208,7.0,13.0,-999,-99.99,,,-99.99,,2013-03-05 09:22:00,
2013-03-05 03:32:00,61.0,-99.9,29.98,SSW,210,8.0,12.0,-999,-99.99,,,-99.99,,2013-03-05 09:32:00,
2013-03-05 03:43:00,60.0,-99.9,29.97,South,189,4.0,7.0,-999,-99.99,,,-99.99,,2013-03-05 09:43:00,
2013-03-05 03:52:00,61.0,-99.9,29.97,North,-999,-999.0,-999.0,-999,-99.99,,,-99.99,,2013-03-05 09:52:00,
2013-03-05 04:02:00,61.0,-99.9,29.97,SSW,205,7.0,11.0,-999,-99.99,,,-99.99,,2013-03-05 10:02:00,
2013-03-05 04:11:00,61.0,-99.9,29.98,SSW,204,8.0,11.0,-999,-99.99,,,-99.99,,2013-03-05 10:11:00,
2013-03-05 04:22:00,61.0,-99.9,29.98,SW,215,6.0,10.0,-999,-99.99,,,-99.99,,2013-03-05 10:22:00,
2013-03-05 04:32:00,61.0,-99.9,29.98,SSW,208,7.0,11.0,-999,-99.99,,,-99.99,,2013-03-05 10:32:00,
2013-03-05 04:42:00,61.0,-99.9,29.98,SSW,201,6.0,10.0,-999,-99.99,,,-99.99,,2013-03-05 10:42:00,
2013-03-05 04:52:00,61.0,-99.9,29.98,SSW,201,6.0,9.0,-999,-99.99,,,-99.99,,2013-03-05 10:52:00,
2013-03-05 05:02:00,61.0,-99.9,29.98,SSW,205,5.0,11.0,-999,-99.99,,,-99.99,,2013-03-05 11:02:00,
2013-03-05 05:12:00,61.0,-99.9,29.99,SSW,203,5.0,7.0,-999,-99.99,,,-99.99,,2013-03-05 11:12:00,
2013-03-05 05:22:00,61.0,-99.9,29.99,SSW,196,5.0,8.0,-999,-99.99,,,-99.99,,2013-03-05 11:22:00,
2013-03-05 05:32:00,61.0,-99.9,29.99,SSW,197,4.0,6.0,-999,-99.99,,,-99.99,,2013-03-05 11:32:00,
2013-03-05 05:42:00,61.0,-99.9,30.00,SSW,196,6.0,9.0,-999,-99.99,,,-99.99,,2013-03-05 11:42:00,
2013-03-05 05:52:00,60.0,-99.9,29.99,SSW,192,5.0,10.0,-999,-99.99,,,-99.99,,2013-03-05 11:52:00,
2013-03-05 06:03:00,60.0,-99.9,29.99,South,177,8.0,10.0,-999,-99.99,,,-99.99,,2013-03-05 12:03:00,
2013-03-05 06:12:00,59.0,-99.9,29.99,South,174,8.0,10.0,-999,-99.99,,,-99.99,,2013-03-05 12:12:00,
2013-03-05 06:22:00,59.0,-99.9,29.98,South,176,8.0,9.0,-999,-99.99,,,-99.99,,2013-03-05 12:22:00,
2013-03-05 06:32:00,59.0,-99.9,29.98,South,178,5.0,7.0,-999,-99.99,,,-99.99,,2013-03-05 12:32:00,
2013-03-05 06:42:00,60.0,-99.9,29.98,South,179,7.0,11.0,-999,-99.99,,,-99.99,,2013-03-05 12:42:00,
2013-03-05 06:53:00,59.0,-99.9,29.99,South,171,8.0,9.0,-999,-99.99,,,-99.99,,2013-03-05 12:53:00,
2013-03-05 07:02:00,58.0,-99.9,29.99,South,172,6.0,7.0,-999,-99.99,,,-99.99,,2013-03-05 13:02:00,
2013-03-05 07:12:00,58.0,-99.9,30.00,North,-999,-999.0,-999.0,-999,-99.99,,,-99.99,,2013-03-05 13:12:00,
2013-03-05 07:22:00,60.0,-99.9,30.00,North,-999,-999.0,-999.0,-999,-99.99,,,-99.99,,2013-03-05 13:22:00,
2013-03-05 07:32:00,60.0,-99.9,30.00,South,177,6.0,7.0,-999,-99.99,,,-99.99,,2013-03-05 13:32:00,
2013-03-05 07:42:00,59.0,-99.9,30.00,South,174,7.0,9.0,-999,-99.99,,,-99.99,,2013-03-05 13:42:00,
2013-03-05 07:52:00,59.0,-99.9,30.00,North,-999,-999.0,-999.0,-999,-99.99,,,-99.99,,2013-03-05 13:52:00,
2013-03-05 08:02:00,59.0,-99.9,30.00,South,180,5.0,7.0,-999,-99.99,,,-99.99,,2013-03-05 14:02:00,
2013-03-05 08:11:00,60.0,-99.9,30.02,South,189,4.0,6.0,-999,-99.99,,,-99.99,,2013-03-05 14:11:00,
2013-03-05 08:22:00,62.0,-99.9,30.07,West,269,5.0,10.0,-999,-99.99,,,-99.99,,2013-03-05 14:22:00,
2013-03-05 08:32:00,61.0,-99.9,30.07,WNW,284,5.0,6.0,-999,-99.99,,,-99.99,,2013-03-05 14:32:00,
2013-03-05 08:42:00,60.0,-99.9,30.07,WSW,240,4.0,9.0,-999,-99.99,,,-99.99,,2013-03-05 14:42:00,
2013-03-05 08:52:00,63.0,-99.9,30.06,North,-999,-999.0,-999.0,-999,-99.99,,,-99.99,,2013-03-05 14:52:00,
2013-03-05 09:02:00,63.0,-99.9,30.06,WSW,245,8.0,11.0,-999,-99.99,,,-99.99,,2013-03-05 15:02:00,
2013-03-05 09:11:00,63.0,-99.9,30.06,SSW,199,5.0,7.0,-999,-99.99,,,-99.99,,2013-03-05 15:11:00,
2013-03-05 09:22:00,63.0,-99.9,30.05,SSW,205,6.0,10.0,-999,-99.99,,,-99.99,,2013-03-05 15:22:00,
2013-03-05 09:32:00,63.0,-99.9,30.05,SSW,205,7.0,11.0,-999,-99.99,,,-99.99,,2013-03-05 15:32:00,
2013-03-05 09:42:00,66.0,-99.9,30.05,SSW,211,7.0,15.0,-999,-99.99,,,-99.99,,2013-03-05 15:42:00,
2013-03-05 09:52:00,67.0,-99.9,30.05,North,-999,-999.0,-999.0,-999,-99.99,,,-99.99,,2013-03-05 15:52:00,
2013-03-05 10:02:00,67.0,-99.9,30.05,SSW,213,7.0,10.0,-999,-99.99,,,-99.99,,2013-03-05 16:02:00,
2013-03-05 10:11:00,65.0,-99.9,30.05,SSW,199,8.0,13.0,-999,-99.99,,,-99.99,,2013-03-05 16:11:00,
2013-03-05 10:22:00,67.0,-99.9,30.05,North,-999,-999.0,-999.0,-999,-99.99,,,-99.99,,2013-03-05 16:22:00,
2013-03-05 10:32:00,68.0,-99.9,30.05,SSW,211,10.0,15.0,-999,-99.99,,,-99.99,,2013-03-05 16:32:00,
2013-03-05 10:42:00,68.0,-99.9,30.04,SSW,205,9.0,15.0,-999,-99.99,,,-99.99,,2013-03-05 16:42:00,
2013-03-05 10:52:00,68.0,-99.9,30.04,North,-999,-999.0,-999.0,-999,-99.99,,,-99.99,,2013-03-05 16:52:00,
2013-03-05 11:01:00,68.0,-99.9,30.04,SSW,212,11.0,17.0,-999,-99.99,,,-99.99,,2013-03-05 17:01:00,
2013-03-05 11:11:00,66.0,-99.9,30.04,SSW,210,12.0,20.0,-999,-99.99,,,-99.99,,2013-03-05 17:11:00,
2013-03-05 11:22:00,67.0,-99.9,30.04,North,-999,-999.0,-999.0,-999,-99.99,,,-99.99,,2013-03-05 17:22:00,
2013-03-05 11:32:00,67.0,-99.9,30.03,SSW,200,10.0,16.0,-999,-99.99,,,-99.99,,2013-03-05 17:32:00,
2013-03-05 11:42:00,67.0,-99.9,30.03,North,-999,-999.0,-999.0,-999,-99.99,,,-99.99,,2013-03-05 17:42:00,
2013-03-05 11:53:00,68.0,-99.9,30.02,SSW,201,10.0,18.0,-999,-99.99,,,-99.99,,2013-03-05 17:53:00,
2013-03-05 12:02:00,68.0,-99.9,30.02,SSW,209,9.0,19.0,-999,-99.99,,,-99.99,,2013-03-05 18:02:00,
2013-03-05 12:11:00,67.0,-99.9,30.02,SSW,210,16.0,23.0,-999,-99.99,,,-99.99,,2013-03-05 18:11:00,
2013-03-05 12:22:00,67.0,-99.9,30.02,SW,215,13.0,21.0,-999,-99.99,,,-99.99,,2013-03-05 18:22:00,
2013-03-05 12:32:00,68.0,-99.9,30.01,SW,215,14.0,22.0,-999,-99.99,,,-99.99,,2013-03-05 18:32:00,
2013-03-05 12:42:00,67.0,-99.9,30.01,SSW,210,11.0,19.0,-999,-99.99,,,-99.99,,2013-03-05 18:42:00,
2013-03-05 12:53:00,66.0,-99.9,30.00,North,-999,-999.0,-999.0,-999,-99.99,,,-99.99,,2013-03-05 18:53:00,
2013-03-05 13:02:00,66.0,-99.9,30.00,SW,214,14.0,24.0,-999,-99.99,,,-99.99,,2013-03-05 19:02:00,
2013-03-05 13:11:00,65.0,-99.9,30.00,SSW,207,16.0,22.0,-999,-99.99,,,-99.99,,2013-03-05 19:11:00,
2013-03-05 13:22:00,65.0,-99.9,30.00,SSW,205,13.0,21.0,-999,-99.99,,,-99.99,,2013-03-05 19:22:00,
2013-03-05 13:32:00,65.0,-99.9,29.99,SSW,205,13.0,23.0,-999,-99.99,,,-99.99,,2013-03-05 19:32:00,
2013-03-05 13:42:00,65.0,-99.9,29.99,SW,223,11.0,20.0,-999,-99.99,,,-99.99,,2013-03-05 19:42:00,
2013-03-05 13:52:00,65.0,-99.9,29.98,North,-999,-999.0,-999.0,-999,-99.99,,,-99.99,,2013-03-05 19:52:00,
2013-03-05 14:02:00,67.0,-99.9,29.98,SSW,211,10.0,18.0,-999,-99.99,,,-99.99,,2013-03-05 20:02:00,
2013-03-05 14:11:00,67.0,-99.9,29.97,SSW,203,12.0,19.0,-999,-99.99,,,-99.99,,2013-03-05 20:11:00,
2013-03-05 14:22:00,67.0,-99.9,29.97,SW,217,11.0,17.0,-999,-99.99,,,-99.99,,2013-03-05 20:22:00,
2013-03-05 14:32:00,67.0,-99.9,29.97,SSW,211,10.0,17.0,-999,-99.99,,,-99.99,,2013-03-05 20:32:00,
2013-03-05 14:42:00,66.0,-99.9,29.96,SW,216,10.0,15.0,-999,-99.99,,,-99.99,,2013-03-05 20:42:00,
2013-03-05 14:52:00,67.0,-99.9,29.96,North,-999,-999.0,-999.0,-999,-99.99,,,-99.99,,2013-03-05 20:52:00,
2013-03-05 15:02:00,68.0,-99.9,29.95,SW,220,11.0,20.0,-999,-99.99,,,-99.99,,2013-03-05 21:02:00,
2013-03-05 15:11:00,67.0,-99.9,29.95,SW,218,11.0,15.0,-999,-99.99,,,-99.99,,2013-03-05 21:11:00,
2013-03-05 15:22:00,67.0,-99.9,29.96,SW,219,11.0,19.0,-999,-99.99,,,-99.99,,2013-03-05 21:22:00,
2013-03-05 15:32:00,67.0,-99.9,29.95,SW,220,11.0,18.0,-999,-99.99,,,-99.99,,2013-03-05 21:32:00,
2013-03-05 15:42:00,66.0,-99.9,29.95,SW,219,13.0,20.0,-999,-99.99,,,-99.99,,2013-03-05 21:42:00,
2013-03-05 15:52:00,66.0,-99.9,29.95,SW,222,10.0,15.0,-999,-99.99,,,-99.99,,2013-03-05 21:52:00,
2013-03-05 16:01:00,66.0,-99.9,29.95,SW,221,10.0,17.0,-999,-99.99,,,-99.99,,2013-03-05 22:01:00,
2013-03-05 16:12:00,67.0,-99.9,29.95,SW,226,9.0,17.0,-999,-99.99,,,-99.99,,2013-03-05 22:12:00,
2013-03-05 16:22:00,66.0,-99.9,29.95,North,-999,-999.0,-999.0,-999,-99.99,,,-99.99,,2013-03-05 22:22:00,
2013-03-05 16:32:00,66.0,-99.9,29.95,SW,235,10.0,19.0,-999,-99.99,,,-99.99,,2013-03-05 22:32:00,
2013-03-05 16:42:00,66.0,-99.9,29.95,WSW,240,12.0,17.0,-999,-99.99,,,-99.99,,2013-03-05 22:42:00,
2013-03-05 16:52:00,65.0,-99.9,29.96,WSW,257,9.0,16.0,-999,-99.99,,,-99.99,,2013-03-05 22:52:00,
2013-03-05 17:01:00,64.0,-99.9,29.96,WNW,284,8.0,10.0,-999,-99.99,,,-99.99,,2013-03-05 23:01:00,
2013-03-05 17:11:00,63.0,-99.9,29.96,West,276,8.0,12.0,-999,-99.99,,,-99.99,,2013-03-05 23:11:00,
2013-03-05 17:22:00,64.0,-99.9,29.97,West,268,9.0,16.0,-999,-99.99,,,-99.99,,2013-03-05 23:22:00,
2013-03-05 17:32:00,64.0,-99.9,29.97,West,271,9.0,13.0,-999,-99.99,,,-99.99,,2013-03-05 23:32:00,
2013-03-05 17:42:00,64.0,-99.9,29.98,West,275,8.0,12.0,-999,-99.99,,,-99.99,,2013-03-05 23:42:00,
2013-03-05 17:53:00,65.0,-99.9,29.98,North,-999,-999.0,-999.0,-999,-99.99,,,-99.99,,2013-03-05 23:53:00,
2013-03-05 18:02:00,67.0,-99.9,29.98,NNW,334,15.0,22.0,-999,-99.99,,,-99.99,,2013-03-06 00:02:00,
2013-03-05 18:11:00,69.0,-99.9,29.98,North,-999,-999.0,-999.0,-999,-99.99,,,-99.99,,2013-03-06 00:11:00,
2013-03-05 18:22:00,68.0,-99.9,29.99,North,-999,-999.0,-999.0,-999,-99.99,,,-99.99,,2013-03-06 00:22:00,
2013-03-05 18:32:00,68.0,-99.9,29.99,NNW,334,13.0,17.0,-999,-99.99,,,-99.99,,2013-03-06 00:32:00,
2013-03-05 18:42:00,67.0,-99.9,30.01,NNW,340,12.0,17.0,-999,-99.99,,,-99.99,,2013-03-06 00:42:00,
2013-03-05 18:52:00,66.0,-99.9,30.02,NNW,343,16.0,22.0,-999,-99.99,,,-99.99,,2013-03-06 00:52:00,
2013-03-05 19:02:00,65.0,-99.9,30.02,NNW,341,13.0,18.0,-999,-99.99,,,-99.99,,2013-03-06 01:02:00,
2013-03-05 19:11:00,64.0,-99.9,30.03,North,352,12.0,18.0,-999,-99.99,,,-99.99,,2013-03-06 01:11:00,
2013-03-05 19:22:00,64.0,-99.9,30.03,North,350,15.0,20.0,-999,-99.99,,,-99.99,,2013-03-06 01:22:00,
2013-03-05 19:32:00,63.0,-99.9,30.04,NNW,344,13.0,16.0,-999,-99.99,,,-99.99,,2013-03-06 01:32:00,
2013-03-05 19:42:00,62.0,-99.9,30.05,North,-999,-999.0,-999.0,-999,-99.99,,,-99.99,,2013-03-06 01:42:00,
2013-03-05 19:52:00,62.0,-99.9,30.05,NNW,348,14.0,17.0,-999,-99.99,,,-99.99,,2013-03-06 01:52:00,
2013-03-05 20:01:00,61.0,-99.9,30.06,NNW,344,10.0,14.0,-999,-99.99,,,-99.99,,2013-03-06 02:01:00,
2013-03-05 20:11:00,60.0,-99.9,30.06,NNW,344,11.0,14.0,-999,-99.99,,,-99.99,,2013-03-06 02:11:00,
2013-03-05 20:22:00,60.0,-99.9,30.07,NNW,346,12.0,16.0,-999,-99.99,,,-99.99,,2013-03-06 02:22:00,
2013-03-05 20:32:00,59.0,-99.9,30.07,NNW,341,10.0,15.0,-999,-99.99,,,-99.99,,2013-03-06 02:32:00,
2013-03-05 20:42:00,59.0,-99.9,30.08,North,-999,-999.0,-999.0,-999,-99.99,,,-99.99,,2013-03-06 02:42:00,
2013-03-05 20:52:00,58.0,-99.9,30.09,North,-999,-999.0,-999.0,-999,-99.99,,,-99.99,,2013-03-06 02:52:00,
2013-03-05 21:02:00,58.0,-99.9,30.09,NNW,347,9.0,11.0,-999,-99.99,,,-99.99,,2013-03-06 03:02:00,
2013-03-05 21:12:00,57.0,-99.9,30.10,North,352,14.0,18.0,-999,-99.99,,,-99.99,,2013-03-06 03:12:00,
2013-03-05 21:22:00,57.0,-99.9,30.10,North,-999,-999.0,-999.0,-999,-99.99,,,-99.99,,2013-03-06 03:22:00,
2013-03-05 21:32:00,57.0,-99.9,30.11,North,353,14.0,19.0,-999,-99.99,,,-99.99,,2013-03-06 03:32:00,
2013-03-05 21:42:00,56.0,-99.9,30.11,North,354,13.0,17.0,-999,-99.99,,,-99.99,,2013-03-06 03:42:00,
2013-03-05 21:53:00,56.0,-99.9,30.12,North,353,15.0,22.0,-999,-99.99,,,-99.99,,2013-03-06 03:53:00,
2013-03-05 22:02:00,56.0,-99.9,30.13,North,353,13.0,18.0,-999,-99.99,,,-99.99,,2013-03-06 04:02:00,
2013-03-05 22:11:00,55.0,-99.9,30.13,North,351,12.0,16.0,-999,-99.99,,,-99.99,,2013-03-06 04:11:00,
2013-03-05 22:22:00,55.0,-99.9,30.13,North,351,10.0,14.0,-999,-99.99,,,-99.99,,2013-03-06 04:22:00,
2013-03-05 22:32:00,54.0,-99.9,30.14,North,352,9.0,12.0,-999,-99.99,,,-99.99,,2013-03-06 04:32:00,
2013-03-05 22:42:00,54.0,-99.9,30.14,North,352,10.0,13.0,-999,-99.99,,,-99.99,,2013-03-06 04:42:00,
2013-03-05 22:52:00,53.0,-99.9,30.14,North,350,9.0,12.0,-999,-99.99,,,-99.99,,2013-03-06 04:52:00,
2013-03-05 23:02:00,53.0,-99.9,30.14,North,351,8.0,9.0,-999,-99.99,,,-99.99,,2013-03-06 05:02:00,
2013-03-05 23:12:00,53.0,-99.9,30.14,North,351,7.0,9.0,-999,-99.99,,,-99.99,,2013-03-06 05:12:00,
2013-03-05 23:23:00,52.0,-99.9,30.14,North,-999,-999.0,-999.0,-999,-99.99,,,-99.99,,2013-03-06 05:23:00,
2013-03-05 23:32:00,52.0,-99.9,30.14,NNW,347,6.0,8.0,-999,-99.99,,,-99.99,,2013-03-06 05:32:00,
2013-03-05 23:42:00,51.0,-99.9,30.15,NNW,341,7.0,9.0,-999,-99.99,,,-99.99,,2013-03-06 05:42:00,
2013-03-05 23:52:00,52.0,-99.9,30.15,North,-999,-999.0,-999.0,-999,-99.99,,,-99.99,,2013-03-06 05:52:00,